Time;durP1;ratioP1;P1;durP2;ratioP2;P2;SDS_P1;SDS_P2;PMS_P1;PMS_P2;Temp;Humidity;BMP_temperature;BMP_pressure;BME280_temperature;BME280_humidity;BME280_pressure;Samples;Min_cycle;Max_cycle;Signal;HPM_P1;HPM_P2
2023/09/26 00:00:24;;;;;;;7.90;3.20;;;15.60;99.90;;;;;;5003874;28;20247;-79
2023/09/26 00:02:53;;;;;;;8.23;3.20;;;15.60;99.90;;;;;;5003377;28;20330;-79
2023/09/26 00:05:20;;;;;;;9.05;3.53;;;15.60;99.90;;;;;;5021271;28;20046;-79
2023/09/26 00:07:48;;;;;;;9.98;3.63;;;15.60;99.90;;;;;;5002649;28;20038;-80
2023/09/26 00:10:14;;;;;;;8.43;3.63;;;15.60;99.90;;;;;;5001918;28;20304;-79
2023/09/26 00:12:40;;;;;;;8.70;3.35;;;15.60;99.90;;;;;;4971240;28;20053;-79
2023/09/26 00:15:07;;;;;;;8.07;3.15;;;15.60;99.90;;;;;;5004475;28;20215;-79
2023/09/26 00:17:33;;;;;;;8.45;3.55;;;15.60;99.90;;;;;;5000104;28;20262;-79
2023/09/26 00:19:59;;;;;;;8.07;3.20;;;15.60;99.90;;;;;;5014857;28;20076;-79
2023/09/26 00:22:25;;;;;;;8.63;3.08;;;15.60;99.90;;;;;;5009489;28;20034;-79
2023/09/26 00:24:51;;;;;;;8.40;3.40;;;15.60;99.90;;;;;;5018717;28;20059;-79
2023/09/26 00:27:20;;;;;;;8.65;3.67;;;15.60;99.90;;;;;;5000800;28;20183;-79
2023/09/26 00:29:47;;;;;;;8.52;3.38;;;15.50;99.90;;;;;;4989388;28;20681;-79
2023/09/26 00:32:12;;;;;;;8.07;3.17;;;15.50;99.90;;;;;;5001944;28;20037;-79
2023/09/26 00:34:38;;;;;;;7.85;3.03;;;15.50;99.90;;;;;;4998095;28;20303;-79
2023/09/26 00:37:04;;;;;;;8.48;3.40;;;15.50;99.90;;;;;;5043336;28;20053;-79
2023/09/26 00:39:30;;;;;;;8.75;3.50;;;15.60;99.90;;;;;;5019352;28;20061;-79
2023/09/26 00:41:56;;;;;;;7.68;3.10;;;15.60;99.90;;;;;;4985033;28;20041;-79
2023/09/26 00:44:22;;;;;;;8.90;3.42;;;15.50;99.90;;;;;;4998158;28;20038;-79
2023/09/26 00:46:48;;;;;;;8.32;3.40;;;15.50;99.90;;;;;;5002817;28;20109;-79
2023/09/26 00:49:14;;;;;;;9.00;3.50;;;15.50;99.90;;;;;;4991932;28;20345;-79
2023/09/26 00:51:40;;;;;;;9.05;3.22;;;15.60;99.90;;;;;;5001949;28;20092;-79
2023/09/26 00:54:09;;;;;;;8.93;3.72;;;15.60;99.90;;;;;;4986813;28;20072;-79
2023/09/26 00:56:38;;;;;;;7.88;3.30;;;15.60;99.90;;;;;;5034677;28;20077;-79
2023/09/26 00:59:04;;;;;;;8.30;3.47;;;15.60;99.90;;;;;;5017554;28;20041;-79
2023/09/26 01:01:31;;;;;;;8.05;3.15;;;15.60;99.90;;;;;;5018518;28;20037;-80
2023/09/26 01:03:59;;;;;;;8.30;3.53;;;15.60;99.90;;;;;;5017525;28;20076;-79
2023/09/26 01:06:24;;;;;;;8.20;3.60;;;15.60;99.90;;;;;;5017773;28;20069;-79
2023/09/26 01:08:50;;;;;;;8.88;3.60;;;15.60;99.90;;;;;;5016733;28;20057;-79
2023/09/26 01:11:16;;;;;;;8.43;3.60;;;15.60;99.90;;;;;;5001654;28;20037;-79
2023/09/26 01:13:42;;;;;;;7.82;3.05;;;15.60;99.90;;;;;;5017920;28;20045;-79
2023/09/26 01:16:15;;;;;;;7.53;3.10;;;15.60;99.90;;;;;;4984371;28;20090;-79
2023/09/26 01:18:41;;;;;;;9.30;3.53;;;15.60;99.90;;;;;;5017267;28;20029;-79
2023/09/26 01:21:07;;;;;;;8.98;4.00;;;15.60;99.90;;;;;;5050844;28;20168;-79
2023/09/26 01:23:36;;;;;;;9.05;3.50;;;15.60;99.90;;;;;;4986271;28;20026;-79
2023/09/26 01:26:02;;;;;;;7.97;3.38;;;15.60;99.90;;;;;;5011864;28;20061;-79
2023/09/26 01:28:28;;;;;;;8.93;3.72;;;15.60;99.90;;;;;;5052548;28;20038;-79
2023/09/26 01:30:54;;;;;;;8.32;3.65;;;15.50;99.90;;;;;;5006933;28;20041;-79
2023/09/26 01:33:21;;;;;;;9.15;4.03;;;15.50;99.90;;;;;;5005161;28;20052;-79
2023/09/26 01:35:48;;;;;;;8.27;3.92;;;15.50;99.90;;;;;;5020816;28;20080;-79
2023/09/26 01:38:14;;;;;;;9.73;3.95;;;15.50;99.90;;;;;;5003590;28;20038;-79
2023/09/26 01:40:43;;;;;;;8.95;4.00;;;15.40;99.90;;;;;;5007107;28;20109;-80
2023/09/26 01:43:09;;;;;;;9.55;4.00;;;15.40;99.90;;;;;;5005938;28;20096;-79
2023/09/26 01:45:34;;;;;;;9.07;3.95;;;15.30;99.90;;;;;;5006970;28;20037;-79
2023/09/26 01:48:00;;;;;;;8.27;4.03;;;15.30;99.90;;;;;;5021155;28;20026;-79
2023/09/26 01:50:26;;;;;;;10.20;4.20;;;15.30;99.90;;;;;;4974862;28;20129;-79
2023/09/26 01:52:52;;;;;;;10.35;4.43;;;15.30;99.90;;;;;;5004910;28;20347;-80
2023/09/26 01:55:20;;;;;;;9.15;4.45;;;15.20;99.90;;;;;;5006157;28;20193;-79
2023/09/26 01:57:47;;;;;;;9.80;4.43;;;15.20;99.90;;;;;;5004886;28;20038;-80
2023/09/26 02:00:14;;;;;;;9.43;4.57;;;15.20;99.90;;;;;;5006428;28;20026;-79
2023/09/26 02:02:41;;;;;;;9.18;5.00;;;15.20;99.90;;;;;;5036544;28;20057;-79
2023/09/26 02:05:11;;;;;;;10.27;4.57;;;15.20;99.90;;;;;;5007970;28;20034;-79
2023/09/26 02:07:37;;;;;;;10.70;4.80;;;15.20;99.90;;;;;;5003998;28;20311;-79
2023/09/26 02:10:04;;;;;;;8.25;4.40;;;15.20;99.90;;;;;;5022148;28;20121;-79
2023/09/26 02:12:30;;;;;;;10.60;5.13;;;15.10;99.90;;;;;;5051775;28;20033;-79
2023/09/26 02:14:56;;;;;;;10.02;5.00;;;15.20;99.90;;;;;;5001439;28;20284;-79
2023/09/26 02:17:22;;;;;;;9.27;4.60;;;15.20;99.90;;;;;;4990552;28;20061;-79
2023/09/26 02:19:48;;;;;;;9.52;5.03;;;15.20;99.90;;;;;;5006377;28;20064;-79
2023/09/26 02:22:14;;;;;;;9.15;4.50;;;15.20;99.90;;;;;;4987879;28;20038;-79
2023/09/26 02:24:39;;;;;;;10.23;5.57;;;15.20;99.90;;;;;;5021195;28;20086;-79
2023/09/26 02:27:05;;;;;;;10.02;4.90;;;15.20;99.90;;;;;;5017731;28;20124;-79
2023/09/26 02:29:31;;;;;;;9.95;4.63;;;15.20;99.90;;;;;;4986109;28;20029;-79
2023/09/26 02:31:57;;;;;;;9.73;4.97;;;15.20;99.90;;;;;;5003208;28;20371;-79
2023/09/26 02:34:22;;;;;;;11.45;4.88;;;15.20;99.90;;;;;;5004223;28;20040;-79
2023/09/26 02:36:49;;;;;;;10.25;5.30;;;15.10;99.90;;;;;;4986831;28;20096;-79
2023/09/26 02:39:15;;;;;;;9.35;5.00;;;15.10;99.90;;;;;;5018608;28;20040;-79
2023/09/26 02:41:41;;;;;;;10.80;5.47;;;15.10;99.90;;;;;;5005684;28;20036;-79
2023/09/26 02:44:06;;;;;;;9.18;4.82;;;15.10;99.90;;;;;;5004849;28;20281;-79
2023/09/26 02:46:33;;;;;;;11.55;5.35;;;15.10;99.90;;;;;;4971906;28;20108;-79
2023/09/26 02:49:03;;;;;;;10.73;5.57;;;15.00;99.90;;;;;;5004867;28;20034;-79
2023/09/26 02:51:29;;;;;;;9.43;5.13;;;15.00;99.90;;;;;;5003753;28;20311;-79
2023/09/26 02:53:55;;;;;;;9.98;5.80;;;15.00;99.90;;;;;;5034541;28;20080;-79
2023/09/26 02:56:21;;;;;;;10.35;5.60;;;14.90;99.90;;;;;;5003642;28;20062;-79
2023/09/26 02:58:47;;;;;;;11.70;6.03;;;14.90;99.90;;;;;;4989367;28;20198;-79
2023/09/26 03:01:20;;;;;;;12.57;5.68;;;14.90;99.90;;;;;;5019704;28;20036;-79
2023/09/26 03:03:48;;;;;;;10.90;5.72;;;14.80;99.90;;;;;;5020589;28;20106;-79
2023/09/26 03:06:13;;;;;;;10.70;5.72;;;14.80;99.90;;;;;;5034991;28;20079;-79
2023/09/26 03:08:39;;;;;;;9.93;5.53;;;14.70;99.90;;;;;;5019535;28;20034;-79
2023/09/26 03:11:05;;;;;;;13.40;5.15;;;14.70;99.90;;;;;;5004137;28;20180;-79
2023/09/26 03:13:33;;;;;;;10.55;5.47;;;14.70;99.90;;;;;;5005322;28;20113;-79
2023/09/26 03:16:00;;;;;;;10.43;5.55;;;14.70;99.90;;;;;;5035691;28;20026;-79
2023/09/26 03:18:26;;;;;;;10.05;5.55;;;14.60;99.90;;;;;;5043434;28;20087;-79
2023/09/26 03:20:56;;;;;;;10.13;5.35;;;14.60;99.90;;;;;;5022179;28;20030;-79
2023/09/26 03:23:22;;;;;;;9.63;4.88;;;14.60;99.90;;;;;;5014413;28;20045;-79
2023/09/26 03:25:48;;;;;;;10.15;5.43;;;14.50;99.90;;;;;;5018851;28;20081;-79
2023/09/26 03:28:14;;;;;;;9.77;5.03;;;14.50;99.90;;;;;;5028892;28;20113;-79
2023/09/26 03:30:40;;;;;;;9.10;5.15;;;14.50;99.90;;;;;;5014279;28;21657;-79
2023/09/26 03:33:06;;;;;;;11.35;5.63;;;14.50;99.90;;;;;;5003389;28;20030;-79
2023/09/26 03:35:32;;;;;;;10.63;5.20;;;14.40;99.90;;;;;;5021125;28;20093;-79
2023/09/26 03:37:57;;;;;;;10.02;5.07;;;14.40;99.90;;;;;;5004536;28;20264;-79
2023/09/26 03:40:23;;;;;;;11.45;5.57;;;14.40;99.90;;;;;;5004667;28;20046;-79
2023/09/26 03:42:49;;;;;;;11.50;5.03;;;14.40;99.90;;;;;;5002835;28;20444;-79
2023/09/26 03:45:14;;;;;;;10.52;5.22;;;14.30;99.90;;;;;;5019747;28;20046;-79
2023/09/26 03:47:40;;;;;;;10.85;4.93;;;14.30;99.90;;;;;;5003361;28;20032;-79
2023/09/26 03:50:07;;;;;;;9.90;5.65;;;14.20;99.90;;;;;;5003809;28;20191;-79
2023/09/26 03:52:33;;;;;;;11.85;5.30;;;14.20;99.90;;;;;;5019394;28;20097;-79
2023/09/26 03:54:59;;;;;;;10.18;5.18;;;14.10;99.90;;;;;;5017980;28;20060;-79
2023/09/26 03:57:24;;;;;;;11.82;5.43;;;14.10;99.90;;;;;;5033320;28;20058;-79
2023/09/26 03:59:51;;;;;;;10.48;5.63;;;14.10;99.90;;;;;;5017060;28;20183;-79
2023/09/26 04:02:17;;;;;;;10.30;5.50;;;14.00;99.90;;;;;;4985484;28;20044;-79
2023/09/26 04:04:42;;;;;;;11.68;5.68;;;14.00;99.90;;;;;;5018368;28;20034;-79
2023/09/26 04:07:08;;;;;;;10.25;5.70;;;13.90;99.90;;;;;;4994672;28;21714;-79
2023/09/26 04:09:34;;;;;;;10.07;5.70;;;13.90;99.90;;;;;;4961523;28;20046;-79
2023/09/26 04:12:04;;;;;;;10.10;5.45;;;13.90;99.90;;;;;;5018258;28;20033;-79
2023/09/26 04:14:30;;;;;;;10.25;5.88;;;13.80;99.90;;;;;;5001840;28;20030;-79
2023/09/26 04:16:56;;;;;;;10.85;5.68;;;13.80;99.90;;;;;;4990552;28;20076;-79
2023/09/26 04:19:22;;;;;;;10.23;5.72;;;13.80;99.90;;;;;;4988062;28;20335;-79
2023/09/26 04:21:48;;;;;;;11.35;6.10;;;13.70;99.90;;;;;;5035054;28;20037;-80
2023/09/26 04:24:15;;;;;;;10.82;5.70;;;13.70;99.90;;;;;;5002391;28;20092;-79
2023/09/26 04:26:40;;;;;;;9.27;4.90;;;13.70;99.90;;;;;;5029359;28;20038;-79
2023/09/26 04:29:06;;;;;;;10.93;5.40;;;13.60;99.90;;;;;;5019911;28;20246;-79
2023/09/26 04:31:32;;;;;;;11.00;5.82;;;13.60;99.90;;;;;;5017045;28;20026;-78
2023/09/26 04:33:58;;;;;;;10.38;5.82;;;13.50;99.90;;;;;;5014459;28;20038;-79
2023/09/26 04:36:24;;;;;;;11.43;5.45;;;13.50;99.90;;;;;;5004489;28;20026;-79
2023/09/26 04:38:49;;;;;;;10.82;5.25;;;13.50;99.90;;;;;;4979175;28;20050;-79
2023/09/26 04:41:16;;;;;;;10.50;5.78;;;13.50;99.90;;;;;;5043591;28;20050;-79
2023/09/26 04:43:42;;;;;;;11.38;5.85;;;13.40;99.90;;;;;;5001507;28;20110;-79
2023/09/26 04:46:17;;;;;;;10.05;5.40;;;13.40;99.90;;;;;;5048436;28;20026;-79
2023/09/26 04:48:44;;;;;;;10.45;6.13;;;13.40;99.90;;;;;;4984634;28;20045;-79
2023/09/26 04:51:14;;;;;;;11.27;5.93;;;13.40;99.90;;;;;;5002133;28;20046;-79
2023/09/26 04:53:40;;;;;;;10.80;5.85;;;13.40;99.90;;;;;;5002741;28;20021;-79
2023/09/26 04:56:07;;;;;;;11.98;5.60;;;13.40;99.90;;;;;;5015069;28;20046;-79
2023/09/26 04:58:33;;;;;;;11.73;5.78;;;13.40;99.90;;;;;;5005438;28;20140;-79
2023/09/26 05:01:02;;;;;;;10.18;5.63;;;13.40;99.90;;;;;;5013623;28;20183;-79
2023/09/26 05:03:28;;;;;;;10.70;5.28;;;13.40;99.90;;;;;;5017842;28;20025;-79
2023/09/26 05:05:54;;;;;;;10.73;5.35;;;13.40;99.90;;;;;;5037873;28;20058;-79
2023/09/26 05:08:19;;;;;;;11.38;6.05;;;13.40;99.90;;;;;;5038097;28;20279;-79
2023/09/26 05:10:48;;;;;;;10.35;5.60;;;13.30;99.90;;;;;;5003995;28;20045;-79
2023/09/26 05:13:14;;;;;;;11.05;5.68;;;13.30;99.90;;;;;;5051441;28;20736;-79
2023/09/26 05:15:40;;;;;;;10.73;5.88;;;13.30;99.90;;;;;;5003281;28;21536;-80
2023/09/26 05:18:06;;;;;;;11.65;5.85;;;13.30;99.90;;;;;;4984241;28;20382;-80
2023/09/26 05:20:32;;;;;;;10.65;5.60;;;13.30;99.90;;;;;;4975429;28;20392;-80
2023/09/26 05:23:00;;;;;;;9.52;5.13;;;13.30;99.90;;;;;;4998487;28;20046;-81
2023/09/26 05:25:27;;;;;;;11.77;5.72;;;13.20;99.90;;;;;;4984764;28;20117;-80
2023/09/26 05:27:52;;;;;;;11.07;5.60;;;13.30;99.90;;;;;;5040321;28;20026;-82
2023/09/26 05:30:18;;;;;;;9.80;5.47;;;13.10;99.90;;;;;;5005019;28;20199;-80
2023/09/26 05:32:44;;;;;;;10.00;5.50;;;13.20;99.90;;;;;;4973830;28;20030;-80
2023/09/26 05:35:11;;;;;;;10.48;5.55;;;13.20;99.90;;;;;;4998831;28;20038;-80
2023/09/26 05:37:37;;;;;;;10.05;5.15;;;13.20;99.90;;;;;;5007417;28;20141;-80
2023/09/26 05:40:06;;;;;;;9.40;5.32;;;13.20;99.90;;;;;;5006996;28;20064;-80
2023/09/26 05:42:37;;;;;;;10.05;5.43;;;13.10;99.90;;;;;;5044612;28;20314;-80
2023/09/26 05:45:04;;;;;;;10.45;5.55;;;13.10;99.90;;;;;;5023150;28;20025;-80
2023/09/26 05:47:30;;;;;;;9.32;5.15;;;13.10;99.90;;;;;;5023564;28;20323;-80
2023/09/26 05:49:56;;;;;;;9.80;5.10;;;13.10;99.90;;;;;;5039849;28;20089;-80
2023/09/26 05:52:22;;;;;;;10.45;5.55;;;13.10;99.90;;;;;;5006310;28;20072;-80
2023/09/26 05:54:48;;;;;;;9.82;4.80;;;13.10;99.90;;;;;;5007172;28;20056;-80
2023/09/26 05:57:14;;;;;;;11.88;5.63;;;13.10;99.90;;;;;;5020242;28;20054;-80
2023/09/26 05:59:40;;;;;;;10.05;5.85;;;13.20;99.90;;;;;;5001163;28;20157;-80
2023/09/26 06:02:10;;;;;;;9.93;5.35;;;13.10;99.90;;;;;;4992074;28;20581;-80
2023/09/26 06:04:40;;;;;;;10.48;5.15;;;13.20;99.90;;;;;;5012390;28;20125;-80
2023/09/26 06:07:06;;;;;;;10.52;5.72;;;13.20;99.90;;;;;;5011939;28;20038;-80
2023/09/26 06:09:32;;;;;;;11.65;5.50;;;13.20;99.90;;;;;;4991351;28;20498;-80
2023/09/26 06:11:57;;;;;;;10.70;5.72;;;13.20;99.90;;;;;;5037857;28;20120;-80
2023/09/26 06:14:23;;;;;;;9.68;5.30;;;13.20;99.90;;;;;;5007344;28;20072;-80
2023/09/26 06:16:49;;;;;;;10.85;5.22;;;13.20;99.90;;;;;;5035607;28;20069;-80
2023/09/26 06:19:14;;;;;;;11.75;5.50;;;13.20;99.90;;;;;;4988358;28;20049;-80
2023/09/26 06:21:42;;;;;;;10.90;5.75;;;13.30;99.90;;;;;;4988111;28;20100;-80
2023/09/26 06:24:09;;;;;;;10.20;5.05;;;13.30;99.90;;;;;;5021258;28;20040;-79
2023/09/26 06:26:35;;;;;;;11.57;5.70;;;13.30;99.90;;;;;;5002952;28;20085;-79
2023/09/26 06:29:00;;;;;;;11.05;6.10;;;13.30;99.90;;;;;;5002141;28;20338;-79
2023/09/26 06:31:26;;;;;;;12.15;5.55;;;13.40;99.90;;;;;;5037004;28;20052;-79
2023/09/26 06:33:52;;;;;;;10.77;5.70;;;13.40;99.90;;;;;;5035751;28;20295;-79
2023/09/26 06:36:19;;;;;;;10.90;5.55;;;13.50;99.90;;;;;;5004263;28;20053;-79
2023/09/26 06:38:45;;;;;;;11.40;5.53;;;13.60;99.90;;;;;;5019254;28;20344;-79
2023/09/26 06:41:10;;;;;;;11.50;5.45;;;13.30;99.90;;;;;;4997658;28;20092;-79
2023/09/26 06:43:36;;;;;;;10.63;5.38;;;13.70;99.90;;;;;;4983404;28;20031;-80
2023/09/26 06:46:06;;;;;;;10.38;5.43;;;13.70;99.90;;;;;;4967548;28;20165;-80
2023/09/26 06:48:37;;;;;;;10.75;5.20;;;13.80;99.90;;;;;;5004146;28;20370;-79
2023/09/26 06:51:03;;;;;;;11.75;5.53;;;13.80;99.90;;;;;;5018957;28;20037;-79
2023/09/26 06:53:29;;;;;;;10.57;5.45;;;13.90;99.90;;;;;;5051707;28;20065;-79
2023/09/26 06:56:03;;;;;;;11.05;5.90;;;14.00;99.90;;;;;;5001727;28;20049;-79
2023/09/26 06:58:29;;;;;;;10.52;5.20;;;14.00;99.90;;;;;;5002467;28;20164;-79
2023/09/26 07:00:55;;;;;;;11.90;5.55;;;14.10;99.90;;;;;;4985554;28;20080;-79
2023/09/26 07:03:21;;;;;;;11.13;5.68;;;14.20;99.90;;;;;;5037148;28;20029;-80
2023/09/26 07:05:47;;;;;;;10.38;5.28;;;14.20;99.90;;;;;;4970876;28;20034;-80
2023/09/26 07:08:14;;;;;;;10.48;5.47;;;14.30;99.90;;;;;;5000891;28;20062;-80
2023/09/26 07:10:40;;;;;;;10.00;5.15;;;14.40;99.90;;;;;;5002482;28;20038;-79
2023/09/26 07:13:06;;;;;;;10.50;5.50;;;14.50;99.90;;;;;;5033465;28;20045;-79
2023/09/26 07:15:32;;;;;;;10.63;5.22;;;14.50;99.90;;;;;;5003905;28;20084;-80
2023/09/26 07:17:59;;;;;;;17.20;5.40;;;14.60;99.90;;;;;;5033069;28;20299;-80
2023/09/26 07:20:28;;;;;;;11.88;5.30;;;14.70;99.90;;;;;;4986883;28;20042;-80
2023/09/26 07:22:54;;;;;;;9.27;4.85;;;14.70;99.90;;;;;;5001278;28;20061;-80
2023/09/26 07:25:21;;;;;;;9.15;4.97;;;14.80;99.90;;;;;;5002272;28;20049;-79
2023/09/26 07:27:46;;;;;;;10.38;5.32;;;14.90;99.90;;;;;;4999093;28;21662;-79
2023/09/26 07:30:12;;;;;;;10.48;5.30;;;15.00;99.90;;;;;;4995931;28;20088;-79
2023/09/26 07:32:39;;;;;;;9.30;4.82;;;15.10;99.90;;;;;;5001237;28;20109;-80
2023/09/26 07:35:05;;;;;;;9.60;4.80;;;15.30;99.90;;;;;;5017648;28;20046;-80
2023/09/26 07:37:31;;;;;;;9.07;4.68;;;15.40;99.90;;;;;;5002460;28;20032;-80
2023/09/26 07:39:57;;;;;;;9.63;4.85;;;15.50;99.90;;;;;;5015272;28;20100;-79
2023/09/26 07:42:23;;;;;;;10.90;4.88;;;15.50;99.90;;;;;;4970890;28;20022;-80
2023/09/26 07:44:49;;;;;;;10.98;4.50;;;15.60;99.90;;;;;;5016002;28;20050;-80
2023/09/26 07:47:15;;;;;;;8.15;4.28;;;15.60;99.90;;;;;;5020154;28;20341;-79
2023/09/26 07:49:41;;;;;;;10.05;4.63;;;15.60;99.90;;;;;;4982625;28;20080;-79
2023/09/26 07:52:07;;;;;;;10.43;4.78;;;15.70;99.90;;;;;;5001923;28;20271;-79
2023/09/26 07:54:33;;;;;;;9.77;4.88;;;15.80;99.90;;;;;;5000212;28;20355;-80
2023/09/26 07:56:59;;;;;;;9.32;4.30;;;15.80;99.90;;;;;;5051713;28;20195;-80
2023/09/26 07:59:24;;;;;;;10.02;5.00;;;15.90;99.90;;;;;;5002104;28;20037;-79
2023/09/26 08:01:50;;;;;;;10.05;4.53;;;16.00;99.90;;;;;;4983798;28;20037;-80
2023/09/26 08:04:16;;;;;;;9.68;4.88;;;16.10;99.90;;;;;;5033738;28;20082;-79
2023/09/26 08:06:42;;;;;;;8.75;4.57;;;16.20;99.90;;;;;;5017302;28;20172;-80
2023/09/26 08:09:10;;;;;;;10.40;4.68;;;16.30;99.90;;;;;;4980145;28;20050;-80
2023/09/26 08:11:37;;;;;;;9.65;5.07;;;16.40;99.90;;;;;;4986346;28;20203;-80
2023/09/26 08:14:03;;;;;;;11.23;4.68;;;16.40;99.90;;;;;;5014827;28;20018;-80
2023/09/26 08:16:29;;;;;;;9.40;4.50;;;16.50;99.90;;;;;;5001588;28;20214;-80
2023/09/26 08:18:55;;;;;;;10.30;4.50;;;16.50;99.90;;;;;;4987165;28;20284;-80
2023/09/26 08:21:20;;;;;;;10.13;4.93;;;16.70;99.90;;;;;;5016422;28;20865;-80
2023/09/26 08:23:46;;;;;;;10.73;4.97;;;16.80;99.90;;;;;;4992877;28;20033;-80
2023/09/26 08:26:12;;;;;;;9.35;4.47;;;16.80;99.90;;;;;;5014233;28;20326;-80
2023/09/26 08:28:38;;;;;;;9.57;4.57;;;16.90;99.90;;;;;;4982466;28;20109;-80
2023/09/26 08:31:07;;;;;;;9.90;4.80;;;16.90;99.90;;;;;;4998060;28;20112;-80
2023/09/26 08:33:33;;;;;;;9.90;4.65;;;17.00;99.90;;;;;;5000293;28;20037;-80
2023/09/26 08:36:00;;;;;;;9.30;4.53;;;17.00;99.90;;;;;;5015399;28;20052;-80
2023/09/26 08:38:25;;;;;;;8.70;4.45;;;17.00;99.90;;;;;;5015555;28;20057;-80
2023/09/26 08:40:52;;;;;;;11.45;5.15;;;17.00;99.90;;;;;;4999378;28;20028;-80
2023/09/26 08:43:25;;;;;;;9.68;4.70;;;17.00;99.90;;;;;;5012261;28;20034;-80
2023/09/26 08:45:52;;;;;;;9.73;4.30;;;17.00;99.90;;;;;;5013583;28;20056;-80
2023/09/26 08:48:18;;;;;;;9.20;4.18;;;17.00;99.90;;;;;;4984088;28;20075;-80
2023/09/26 08:50:44;;;;;;;10.30;4.53;;;17.00;99.90;;;;;;5015952;28;20366;-80
2023/09/26 08:53:10;;;;;;;10.50;4.78;;;17.00;99.90;;;;;;5020776;28;20037;-80
2023/09/26 08:55:38;;;;;;;9.68;4.72;;;17.00;99.90;;;;;;5015614;28;20054;-79
2023/09/26 08:58:05;;;;;;;9.88;4.88;;;17.00;99.90;;;;;;4996801;28;20055;-80
2023/09/26 09:00:31;;;;;;;9.30;4.35;;;17.10;99.90;;;;;;5011762;28;20074;-80
2023/09/26 09:02:57;;;;;;;10.07;4.75;;;17.10;99.90;;;;;;4968619;28;20436;-80
2023/09/26 09:05:23;;;;;;;11.85;4.60;;;17.10;99.90;;;;;;4998234;28;20284;-80
2023/09/26 09:07:49;;;;;;;11.25;4.50;;;17.20;99.90;;;;;;4999515;28;20080;-80
2023/09/26 09:10:19;;;;;;;13.93;5.22;;;17.20;99.90;;;;;;5023329;28;20042;-80
2023/09/26 09:12:50;;;;;;;11.98;4.82;;;17.30;99.90;;;;;;4996692;28;20101;-80
2023/09/26 09:15:15;;;;;;;12.52;5.07;;;17.40;99.90;;;;;;5015505;28;21466;-80
2023/09/26 09:17:42;;;;;;;10.55;4.90;;;17.40;99.90;;;;;;5011416;28;20156;-80
2023/09/26 09:20:09;;;;;;;9.75;4.57;;;17.50;99.90;;;;;;4999304;28;20401;-80
2023/09/26 09:22:35;;;;;;;9.88;4.90;;;17.60;99.90;;;;;;5014712;28;20038;-80
2023/09/26 09:25:02;;;;;;;10.80;5.32;;;17.80;99.90;;;;;;5029684;28;20244;-80
2023/09/26 09:27:38;;;;;;;11.48;5.15;;;17.90;99.90;;;;;;4997290;28;20037;-80
2023/09/26 09:30:08;;;;;;;11.52;5.35;;;18.10;99.90;;;;;;5014231;28;20275;-80
2023/09/26 09:32:35;;;;;;;10.65;5.20;;;18.20;99.90;;;;;;5016115;28;20038;-81
2023/09/26 09:35:02;;;;;;;10.45;5.00;;;18.40;99.90;;;;;;4997859;28;20065;-80
2023/09/26 09:37:28;;;;;;;10.48;5.07;;;18.40;99.90;;;;;;5012677;28;20033;-80
2023/09/26 09:39:54;;;;;;;11.15;4.60;;;18.30;99.90;;;;;;5032250;28;20049;-80
2023/09/26 09:42:20;;;;;;;9.48;4.68;;;18.30;99.90;;;;;;4967965;28;20036;-80
2023/09/26 09:44:46;;;;;;;10.32;4.97;;;18.40;99.90;;;;;;5031019;28;20041;-80
2023/09/26 09:47:22;;;;;;;10.32;5.15;;;18.40;99.90;;;;;;4997226;28;20026;-80
2023/09/26 09:49:49;;;;;;;10.82;4.90;;;18.50;99.90;;;;;;5016776;28;20367;-80
2023/09/26 09:52:21;;;;;;;9.63;5.20;;;18.60;99.90;;;;;;4971148;28;20037;-80
2023/09/26 09:54:48;;;;;;;11.05;5.20;;;18.90;99.90;;;;;;4987691;28;20057;-81
2023/09/26 09:57:15;;;;;;;11.98;5.43;;;18.90;99.90;;;;;;4982513;28;20038;-80
2023/09/26 09:59:43;;;;;;;11.13;5.03;;;19.10;99.90;;;;;;5017367;28;20100;-81
2023/09/26 10:02:12;;;;;;;12.68;5.30;;;19.10;99.90;;;;;;5001702;28;20156;-80
2023/09/26 10:04:38;;;;;;;10.75;5.00;;;19.20;99.90;;;;;;5002222;28;20041;-80
2023/09/26 10:07:04;;;;;;;12.52;5.07;;;19.30;99.90;;;;;;4997248;28;20069;-80
2023/09/26 10:09:32;;;;;;;9.88;4.70;;;19.30;99.90;;;;;;5001829;28;20032;-80
2023/09/26 10:11:59;;;;;;;10.23;5.05;;;19.30;99.90;;;;;;5001484;28;20068;-80
2023/09/26 10:14:28;;;;;;;11.13;4.63;;;19.30;99.90;;;;;;4984120;28;20030;-81
2023/09/26 10:16:57;;;;;;;10.50;5.18;;;19.30;99.90;;;;;;5018592;28;20057;-80
2023/09/26 10:19:28;;;;;;;10.88;4.75;;;19.30;99.90;;;;;;5018457;28;20030;-80
2023/09/26 10:22:16;;;;;;;11.05;4.68;;;19.40;99.90;;;;;;5002628;28;20029;-80
2023/09/26 10:24:49;;;;;;;9.50;4.70;;;19.40;99.90;;;;;;5052379;28;20026;-80
2023/09/26 10:27:21;;;;;;;;;;;19.50;99.90;;;;;;5036014;28;20104;-80
2023/09/26 10:29:47;;;;;;;10.40;4.27;;;19.40;99.90;;;;;;5003372;28;19915;-81
2023/09/26 10:32:27;;;;;;;9.80;4.03;;;19.50;99.90;;;;;;4997030;28;20034;-81
2023/09/26 10:34:52;;;;;;;10.93;4.70;;;19.50;99.90;;;;;;5018262;28;20034;-81
2023/09/26 10:37:19;;;;;;;11.50;4.55;;;19.40;99.90;;;;;;4970759;28;20323;-81
2023/09/26 10:39:45;;;;;;;11.02;4.20;;;19.50;99.90;;;;;;5033367;28;20228;-80
2023/09/26 10:42:21;;;;;;;10.57;4.10;;;19.50;99.90;;;;;;5000200;28;20042;-80
2023/09/26 10:44:50;;;;;;;9.32;4.65;;;19.50;99.90;;;;;;4981344;28;20033;-81
2023/09/26 10:47:21;;;;;;;9.93;4.30;;;19.60;99.90;;;;;;4971209;28;20033;-80
2023/09/26 10:49:47;;;;;;;9.30;4.55;;;19.60;99.90;;;;;;5032936;28;20068;-80
2023/09/26 10:52:14;;;;;;;9.75;4.25;;;19.60;99.90;;;;;;5000036;28;20279;-80
2023/09/26 10:54:41;;;;;;;9.40;4.60;;;19.60;99.90;;;;;;4999792;28;20029;-81
2023/09/26 10:57:26;;;;;;;9.95;3.92;;;19.60;99.90;;;;;;5014556;28;20041;-81
2023/09/26 10:59:52;;;;;;;9.18;4.20;;;19.60;99.90;;;;;;4999784;28;20034;-81
2023/09/26 11:02:21;;;;;;;9.73;4.13;;;19.60;99.90;;;;;;5017483;28;20096;-81
2023/09/26 11:04:47;;;;;;;10.02;4.57;;;19.60;99.90;;;;;;5048677;28;20152;-81
2023/09/26 11:07:15;;;;;;;9.88;4.35;;;19.70;99.90;;;;;;5033502;28;20058;-80
2023/09/26 11:09:44;;;;;;;8.80;4.07;;;19.70;99.90;;;;;;5017315;28;20227;-80
2023/09/26 11:12:12;;;;;;;11.63;4.22;;;19.80;99.90;;;;;;5034228;28;20351;-81
2023/09/26 11:14:37;;;;;;;8.48;3.85;;;19.80;99.90;;;;;;5013439;28;20049;-81
2023/09/26 11:17:04;;;;;;;9.25;4.22;;;19.80;99.90;;;;;;5014928;28;20026;-81
2023/09/26 11:19:30;;;;;;;8.07;3.70;;;19.80;99.90;;;;;;5033243;28;20038;-81
2023/09/26 11:21:56;;;;;;;9.05;4.18;;;19.90;99.90;;;;;;4999041;28;20278;-81
2023/09/26 11:24:27;;;;;;;8.98;4.18;;;19.80;99.90;;;;;;4997088;28;20030;-81
2023/09/26 11:26:56;;;;;;;9.85;3.97;;;19.90;99.90;;;;;;4982983;28;20030;-81
2023/09/26 11:29:24;;;;;;;8.63;4.20;;;19.90;99.90;;;;;;4999668;28;20041;-81
2023/09/26 11:31:52;;;;;;;9.00;3.90;;;19.90;99.90;;;;;;5000649;28;20310;-81
2023/09/26 11:34:19;;;;;;;8.90;3.97;;;20.00;99.90;;;;;;5000149;28;20228;-81
2023/09/26 11:36:47;;;;;;;11.70;4.10;;;19.90;99.90;;;;;;5012103;28;20042;-81
2023/09/26 11:39:21;;;;;;;8.77;3.90;;;19.90;99.90;;;;;;5015909;28;20036;-81
2023/09/26 11:42:00;;;;;;;9.07;3.78;;;19.90;99.90;;;;;;5014079;28;20034;-81
2023/09/26 11:44:26;;;;;;;8.85;4.07;;;19.90;99.90;;;;;;4985251;28;20026;-80
2023/09/26 11:46:52;;;;;;;8.57;3.95;;;19.90;99.90;;;;;;5001392;28;20254;-80
2023/09/26 11:49:18;;;;;;;8.32;3.72;;;19.80;99.90;;;;;;5017388;28;20030;-81
2023/09/26 11:51:47;;;;;;;8.60;3.42;;;19.90;99.90;;;;;;5012831;28;20065;-81
2023/09/26 11:54:13;;;;;;;8.07;3.40;;;19.80;99.90;;;;;;5029779;28;20203;-81
2023/09/26 11:56:44;;;;;;;8.70;3.60;;;19.80;99.90;;;;;;5045489;28;20111;-81
2023/09/26 11:59:10;;;;;;;8.05;3.60;;;19.80;99.90;;;;;;4985329;28;20113;-81
2023/09/26 12:01:36;;;;;;;8.70;3.35;;;19.80;99.90;;;;;;4983307;28;20048;-81
2023/09/26 12:04:05;;;;;;;8.52;3.70;;;19.90;99.90;;;;;;5001582;28;20025;-81
2023/09/26 12:06:34;;;;;;;10.07;3.85;;;19.90;99.90;;;;;;5000719;28;21214;-81
2023/09/26 12:09:00;;;;;;;9.10;3.63;;;19.90;99.90;;;;;;4999132;28;20025;-81
2023/09/26 12:11:26;;;;;;;8.57;3.58;;;19.90;99.90;;;;;;5000057;28;20104;-81
2023/09/26 12:13:52;;;;;;;10.25;3.95;;;20.00;99.90;;;;;;5046015;28;20236;-81
2023/09/26 12:16:18;;;;;;;8.40;3.78;;;20.00;99.90;;;;;;5003041;28;20060;-81
2023/09/26 12:18:43;;;;;;;9.15;3.90;;;20.20;99.90;;;;;;4998899;28;20036;-81
2023/09/26 12:21:09;;;;;;;8.57;3.88;;;20.10;99.90;;;;;;4999442;28;20032;-81
2023/09/26 12:23:35;;;;;;;8.43;3.83;;;20.20;99.90;;;;;;4998365;28;20033;-80
2023/09/26 12:26:01;;;;;;;8.52;4.25;;;20.20;99.90;;;;;;4985269;28;20045;-81
2023/09/26 12:28:27;;;;;;;8.05;3.92;;;20.20;99.90;;;;;;4979991;28;20033;-80
2023/09/26 12:30:53;;;;;;;9.18;4.20;;;20.20;99.90;;;;;;4998812;28;20054;-80
2023/09/26 12:33:20;;;;;;;8.30;3.92;;;20.30;99.90;;;;;;5046637;28;20205;-80
2023/09/26 12:35:45;;;;;;;8.38;3.80;;;20.30;99.90;;;;;;4983496;28;20044;-80
2023/09/26 12:38:11;;;;;;;9.45;3.47;;;20.30;99.90;;;;;;5010876;28;20299;-80
2023/09/26 12:40:37;;;;;;;9.15;3.45;;;20.30;99.90;;;;;;4993079;28;20030;-80